Time;durP1;ratioP1;P1;durP2;ratioP2;P2;SDS_P1;SDS_P2;PMS_P1;PMS_P2;Temp;Humidity;BMP_temperature;BMP_pressure;BME280_temperature;BME280_humidity;BME280_pressure;Samples;Min_cycle;Max_cycle;Signal;HPM_P1;HPM_P2
2022/09/29 00:01:29;;;;;;;11.85;4.00;;;;;;;16.04;85.54;93938.06;5110767;28;20177;-76
2022/09/29 00:03:55;;;;;;;10.57;4.80;;;;;;;16.05;86.19;93956.38;5110697;28;20565;-75
2022/09/29 00:06:20;;;;;;;8.48;4.38;;;;;;;15.93;86.12;93961.16;5110292;28;20200;-75
2022/09/29 00:08:46;;;;;;;7.72;3.70;;;;;;;15.96;85.38;93959.84;5110247;28;20173;-75
2022/09/29 00:11:14;;;;;;;10.20;3.60;;;;;;;16.03;85.26;93953.19;5110444;28;20242;-75
2022/09/29 00:13:40;;;;;;;9.07;3.88;;;;;;;15.78;85.62;93931.97;5110479;28;20265;-75
2022/09/29 00:16:06;;;;;;;10.27;3.65;;;;;;;15.87;86.27;93941.00;5110286;28;20253;-75
2022/09/29 00:18:33;;;;;;;15.70;4.32;;;;;;;16.04;86.80;93949.47;5110279;28;20180;-75
2022/09/29 00:21:01;;;;;;;8.82;3.10;;;;;;;15.98;87.25;93963.81;5110150;28;20175;-75
2022/09/29 00:23:28;;;;;;;7.95;3.45;;;;;;;16.01;87.21;93967.78;5110172;28;20609;-75
2022/09/29 00:26:03;;;;;;;5.50;3.22;;;;;;;15.97;87.67;93956.13;5110330;28;20258;-75
2022/09/29 00:28:28;;;;;;;13.65;3.90;;;;;;;15.96;87.75;93957.97;5110229;28;20184;-75
2022/09/29 00:30:54;;;;;;;9.30;3.35;;;;;;;15.79;88.26;93952.94;5110236;28;20184;-75
2022/09/29 00:33:19;;;;;;;6.43;3.30;;;;;;;15.74;88.46;93952.13;5110152;28;20173;-75
2022/09/29 00:35:55;;;;;;;6.88;3.70;;;;;;;15.74;88.74;93952.91;5110172;28;20181;-75
2022/09/29 00:38:20;;;;;;;13.82;3.45;;;;;;;15.67;88.86;93960.34;5109915;28;20275;-75
2022/09/29 00:40:46;;;;;;;6.07;3.40;;;;;;;15.64;89.09;93957.44;5110050;28;20606;-74
2022/09/29 00:43:20;;;;;;;9.38;3.17;;;;;;;15.60;89.39;93949.19;5110065;28;20188;-74
2022/09/29 00:45:46;;;;;;;8.85;3.38;;;;;;;15.60;89.60;93946.53;5109943;28;20617;-75
2022/09/29 00:48:16;;;;;;;11.52;3.55;;;;;;;15.49;89.56;93935.09;5110117;28;20173;-75
2022/09/29 00:50:50;;;;;;;24.65;4.25;;;;;;;15.51;89.79;93955.25;5113565;28;20264;-75
2022/09/29 00:53:18;;;;;;;7.15;2.97;;;;;;;15.36;90.19;93951.53;5113822;28;20276;-76
2022/09/29 00:55:49;;;;;;;16.75;4.72;;;;;;;15.33;90.66;93946.72;5113730;28;20184;-77
2022/09/29 00:58:32;;;;;;;4.13;3.17;;;;;;;15.33;90.95;93951.25;5113810;28;20254;-76
2022/09/29 01:00:58;;;;;;;7.43;3.90;;;;;;;15.31;90.69;93951.50;5113752;28;20233;-75
2022/09/29 01:03:29;;;;;;;9.00;3.75;;;;;;;15.15;91.55;93951.72;5113482;28;20219;-75
2022/09/29 01:06:18;;;;;;;3.88;3.10;;;;;;;15.12;91.85;93945.09;5113456;27;20204;-75
2022/09/29 01:08:51;;;;;;;4.60;3.20;;;;;;;14.92;92.04;93950.34;5113460;28;20542;-76
2022/09/29 01:11:19;;;;;;;9.67;3.50;;;;;;;14.63;92.92;93916.31;5113498;28;20576;-75
2022/09/29 01:13:46;;;;;;;5.90;3.37;;;;;;;14.82;93.02;93945.78;5113437;27;20173;-76
2022/09/29 01:16:11;;;;;;;9.00;3.83;;;;;;;14.81;93.34;93940.75;5113194;28;20173;-75
2022/09/29 01:18:37;;;;;;;8.97;3.40;;;;;;;14.82;93.22;93945.78;5113150;28;20659;-76
2022/09/29 01:21:35;;;;;;;10.27;3.47;;;;;;;14.61;93.13;93920.28;5114116;27;20169;-75
2022/09/29 01:24:57;;;;;;;9.90;3.53;;;;;;;14.71;93.10;93957.38;5113275;28;20550;-76
2022/09/29 01:27:38;;;;;;;6.27;3.70;;;;;;;14.68;93.41;93950.78;5030486;28;20190;-76
2022/09/29 01:30:12;;;;;;;6.23;3.60;;;;;;;14.72;93.87;93956.34;5109098;28;20697;-76
2022/09/29 01:33:09;;;;;;;7.03;3.53;;;;;;;14.65;93.44;93948.63;5112874;28;20176;-76
2022/09/29 01:35:50;;;;;;;5.70;3.60;;;;;;;14.62;93.46;93958.94;5112746;28;20238;-75
2022/09/29 01:38:34;;;;;;;8.27;3.73;;;;;;;14.58;93.48;93953.38;5112901;27;20184;-75
2022/09/29 01:41:19;;;;;;;13.57;4.37;;;;;;;14.60;93.72;93953.13;5112737;28;20183;-76
2022/09/29 01:44:01;;;;;;;9.37;5.00;;;;;;;14.47;93.26;93937.69;5112736;28;20173;-76
2022/09/29 01:46:48;;;;;;;13.63;4.73;;;;;;;14.51;93.86;93962.59;5112694;27;20220;-76
2022/09/29 01:49:16;;;;;;;14.77;6.90;;;;;;;14.41;94.49;93965.19;5112119;28;20287;-75
2022/09/29 01:51:53;;;;;;;14.53;5.60;;;;;;;14.39;95.01;93973.38;5112916;28;20293;-76
2022/09/29 01:54:41;;;;;;;13.53;6.40;;;;;;;14.41;95.08;93975.78;5112682;28;20173;-76
2022/09/29 01:57:11;;;;;;;10.00;4.60;;;;;;;14.42;95.24;93972.09;5101426;28;20276;-76
2022/09/29 01:59:45;;;;;;;10.30;5.33;;;;;;;14.41;95.27;93971.28;5112201;28;20255;-75
2022/09/29 02:02:31;;;;;;;10.83;3.80;;;;;;;14.43;95.25;93960.44;5112264;28;20260;-75
2022/09/29 02:05:01;;;;;;;13.53;4.10;;;;;;;14.46;95.20;93965.22;5112187;28;20575;-75
2022/09/29 02:07:39;;;;;;;9.00;3.87;;;;;;;14.44;94.90;93965.50;5112540;28;20711;-75
2022/09/29 02:10:29;;;;;;;6.80;4.17;;;;;;;14.47;94.84;93969.44;5112164;28;20677;-75
2022/09/29 02:12:58;;;;;;;8.97;4.50;;;;;;;14.35;94.77;93935.22;5112250;28;20651;-75
2022/09/29 02:15:30;;;;;;;6.80;4.17;;;;;;;14.53;94.52;93960.50;5111958;28;20192;-75
2022/09/29 02:18:02;;;;;;;10.73;4.07;;;;;;;14.50;94.83;93961.81;5111822;28;20172;-75
2022/09/29 02:20:27;;;;;;;14.67;4.50;;;;;;;14.53;94.63;93979.81;5111933;28;20199;-75
2022/09/29 02:22:54;;;;;;;15.60;5.17;;;;;;;14.52;94.54;93972.94;5112225;28;20180;-75
2022/09/29 02:25:22;;;;;;;9.27;4.60;;;;;;;14.56;94.40;93974.00;5111212;28;20193;-75
2022/09/29 02:27:49;;;;;;;10.07;4.50;;;;;;;14.64;94.86;93978.81;5111982;27;20181;-75
2022/09/29 02:30:16;;;;;;;7.83;4.20;;;;;;;14.62;95.33;93982.78;5111854;28;20177;-75
2022/09/29 02:32:42;;;;;;;11.73;4.70;;;;;;;14.65;95.27;93980.41;5111845;28;20369;-75
2022/09/29 02:35:12;;;;;;;11.13;3.90;;;;;;;14.69;95.22;93976.22;5111960;28;20561;-75
2022/09/29 02:37:46;;;;;;;5.97;4.17;;;;;;;14.67;94.76;93983.63;5111346;28;20296;-75
2022/09/29 02:40:20;;;;;;;9.67;4.50;;;;;;;14.62;94.98;93972.19;5111503;28;20179;-75
2022/09/29 02:42:48;;;;;;;10.67;3.40;;;;;;;14.58;95.59;93974.56;5111471;28;20549;-75
2022/09/29 02:45:51;;;;;;;8.30;4.07;;;;;;;14.67;95.35;93983.63;5111420;28;20230;-75
2022/09/29 02:48:41;;;;;;;12.17;3.77;;;;;;;14.66;95.09;93979.38;5111307;28;20677;-75
2022/09/29 02:51:20;;;;;;;8.23;3.08;;;;;;;14.51;95.07;93944.88;5111289;28;20195;-75
2022/09/29 02:54:21;;;;;;;6.87;3.53;;;;;;;14.67;94.93;93969.56;5111402;28;20227;-75
2022/09/29 02:57:11;;;;;;;8.57;3.93;;;;;;;14.50;95.10;93959.16;5093316;28;20191;-75
2022/09/29 02:59:46;;;;;;;10.37;3.10;;;;;;;14.42;96.06;93929.72;5111402;28;20246;-75
2022/09/29 03:02:14;;;;;;;8.20;3.50;;;;;;;14.47;96.08;93904.03;5111134;28;20273;-75
2022/09/29 03:04:39;;;;;;;9.93;3.70;;;;;;;14.58;95.44;93934.84;5111012;28;20181;-75
2022/09/29 03:07:04;;;;;;;9.70;3.50;;;;;;;14.58;95.93;93921.59;5111094;28;20241;-75
2022/09/29 03:09:30;;;;;;;9.23;2.73;;;;;;;14.60;95.28;93931.94;5111258;28;20199;-75
2022/09/29 03:11:55;;;;;;;17.90;6.10;;;;;;;14.58;95.20;93918.94;5110476;28;20173;-75
2022/09/29 03:14:20;;;;;;;5.13;3.10;;;;;;;14.67;94.81;93949.19;5109800;28;20200;-75
2022/09/29 03:16:46;;;;;;;5.83;3.27;;;;;;;14.80;94.62;93965.63;5111176;28;20209;-75
2022/09/29 03:19:11;;;;;;;16.47;7.90;;;;;;;14.84;94.32;93986.06;5110924;28;21160;-75
2022/09/29 03:21:37;;;;;;;10.23;3.40;;;;;;;14.91;93.32;93986.63;5111097;28;20183;-75
2022/09/29 03:24:02;;;;;;;8.10;2.85;;;;;;;14.97;93.02;93982.13;5111028;28;20272;-75
2022/09/29 03:26:29;;;;;;;6.30;2.77;;;;;;;15.03;92.55;93983.78;5110702;28;20284;-75
2022/09/29 03:28:54;;;;;;;6.20;2.73;;;;;;;15.03;92.48;93987.22;5110787;28;20172;-75
2022/09/29 03:31:19;;;;;;;6.67;3.83;;;;;;;15.03;92.53;93991.72;5110794;28;20202;-75
2022/09/29 03:33:45;;;;;;;6.73;4.30;;;;;;;14.76;92.90;93977.81;5110777;28;20187;-75
2022/09/29 03:36:10;;;;;;;9.87;4.37;;;;;;;14.83;92.98;94000.38;5110732;28;20662;-75
2022/09/29 03:38:37;;;;;;;16.20;4.70;;;;;;;14.81;93.24;94010.44;5110646;28;20223;-75
2022/09/29 03:41:02;;;;;;;10.77;4.60;;;;;;;14.88;93.29;93996.94;5110805;28;20180;-75
2022/09/29 03:43:28;;;;;;;8.57;3.77;;;;;;;14.85;92.87;94008.06;5110636;28;20173;-75
2022/09/29 03:45:55;;;;;;;8.87;3.10;;;;;;;14.72;92.80;93986.28;5110550;28;20258;-76
2022/09/29 03:48:21;;;;;;;9.73;3.00;;;;;;;14.72;93.34;94015.41;5110865;28;20204;-76
2022/09/29 03:50:48;;;;;;;9.83;3.20;;;;;;;14.64;93.90;94005.31;5110727;28;20237;-75
2022/09/29 03:53:14;;;;;;;4.83;2.23;;;;;;;14.78;93.06;93979.16;5111019;28;20264;-76
2022/09/29 03:55:40;;;;;;;4.43;2.60;;;;;;;14.71;93.01;93976.72;5110617;28;20184;-75
2022/09/29 03:58:06;;;;;;;4.30;2.60;;;;;;;14.79;93.07;93990.56;5110659;28;20177;-75
2022/09/29 04:00:32;;;;;;;13.93;3.00;;;;;;;14.55;92.95;93953.88;5110620;28;20184;-75
2022/09/29 04:02:57;;;;;;;5.40;2.13;;;;;;;14.77;92.96;93987.38;5110943;28;20227;-75
2022/09/29 04:05:23;;;;;;;5.40;2.30;;;;;;;14.67;93.19;93986.25;5110170;28;20197;-76
2022/09/29 04:07:49;;;;;;;3.97;2.80;;;;;;;14.62;93.13;93986.22;5110403;28;20184;-75
2022/09/29 04:10:15;;;;;;;8.17;2.43;;;;;;;14.54;93.68;93989.34;5110417;28;20184;-76
2022/09/29 04:12:40;;;;;;;8.90;3.07;;;;;;;14.36;94.15;93985.25;5110417;28;20173;-75
2022/09/29 04:15:06;;;;;;;9.50;3.30;;;;;;;14.21;94.50;93966.63;5110439;28;20237;-75
2022/09/29 04:17:32;;;;;;;5.37;2.70;;;;;;;14.38;94.57;93992.94;5110159;28;20185;-75
2022/09/29 04:19:57;;;;;;;5.27;2.53;;;;;;;14.46;94.46;93978.44;5110076;28;20181;-75
2022/09/29 04:22:23;;;;;;;7.50;3.00;;;;;;;14.42;94.32;93996.72;5110119;28;20192;-75
2022/09/29 04:24:49;;;;;;;4.60;3.30;;;;;;;14.27;94.70;93983.34;5113314;28;20542;-75
2022/09/29 04:27:15;;;;;;;13.00;3.63;;;;;;;14.26;94.46;93979.09;5114246;28;20181;-75
2022/09/29 04:29:41;;;;;;;12.10;3.17;;;;;;;14.32;94.55;93972.78;5114246;28;20195;-75
2022/09/29 04:32:06;;;;;;;3.83;2.87;;;;;;;14.30;94.81;93964.28;5113930;28;20176;-75
2022/09/29 04:34:32;;;;;;;11.10;3.13;;;;;;;14.42;94.96;93993.28;5114435;28;20185;-76
2022/09/29 04:36:57;;;;;;;10.13;3.40;;;;;;;14.43;94.53;93986.91;5113450;28;20293;-75
2022/09/29 04:39:23;;;;;;;7.93;3.30;;;;;;;14.46;94.64;93975.81;5113783;28;20201;-75
2022/09/29 04:41:48;;;;;;;19.03;8.07;;;;;;;14.47;94.65;93974.75;5103922;28;20274;-75
2022/09/29 04:44:14;;;;;;;12.30;4.67;;;;;;;14.33;94.07;93988.41;5106367;28;20570;-75
2022/09/29 04:46:40;;;;;;;9.90;3.67;;;;;;;14.19;94.72;93971.38;5113842;28;20200;-76
2022/09/29 04:49:05;;;;;;;13.77;4.53;;;;;;;14.22;94.69;93968.22;5113595;28;20177;-76
2022/09/29 04:51:31;;;;;;;9.20;3.77;;;;;;;14.31;94.06;93976.47;5112352;28;20608;-75
2022/09/29 04:53:59;;;;;;;9.60;4.30;;;;;;;14.11;94.43;93984.28;5108643;28;20184;-75
2022/09/29 04:56:30;;;;;;;16.57;4.63;;;;;;;13.84;95.90;93989.63;5099376;28;20706;-76
2022/09/29 04:58:55;;;;;;;7.83;4.00;;;;;;;13.75;97.69;93985.88;5097206;28;20183;-75
2022/09/29 05:01:21;;;;;;;7.67;4.30;;;;;;;14.65;99.12;93971.66;5101572;28;20174;-75
2022/09/29 05:03:46;;;;;;;11.95;4.50;;;;;;;16.33;92.82;93972.81;5097691;28;20253;-75
2022/09/29 05:06:12;;;;;;;12.35;3.45;;;;;;;18.37;83.83;93987.53;5109885;28;20282;-76
2022/09/29 05:08:37;;;;;;;7.10;4.25;;;;;;;19.86;72.18;93992.50;5113470;28;20545;-76
2022/09/29 05:11:05;;;;;;;13.98;3.53;;;;;;;20.84;68.08;94005.91;5113272;28;20222;-76
2022/09/29 05:13:31;;;;;;;16.83;3.30;;;;;;;22.40;64.27;94017.16;5113130;28;20189;-76
2022/09/29 05:15:56;;;;;;;10.65;3.83;;;;;;;23.56;58.76;94007.97;5113485;28;20179;-76
2022/09/29 05:18:23;;;;;;;18.15;3.78;;;;;;;24.77;56.16;93996.13;5113281;28;20185;-74
2022/09/29 05:20:48;;;;;;;13.73;3.25;;;;;;;25.76;52.96;93983.25;5113276;28;20184;-74
2022/09/29 05:23:14;;;;;;;8.63;5.10;;;;;;;26.06;50.95;94002.06;5113097;28;20181;-74
2022/09/29 05:25:39;;;;;;;13.13;4.88;;;;;;;26.83;49.98;94019.53;5101448;28;20201;-75
2022/09/29 05:28:05;;;;;;;14.57;4.32;;;;;;;27.91;47.08;94011.94;5111409;28;20260;-75
2022/09/29 05:30:30;;;;;;;23.20;4.72;;;;;;;28.96;44.90;94008.03;5111728;28;20173;-75
2022/09/29 05:32:56;;;;;;;20.23;5.32;;;;;;;29.61;43.37;94006.59;5103642;28;20666;-75
2022/09/29 05:35:21;;;;;;;14.98;5.10;;;;;;;28.61;43.84;94005.13;5113134;28;20181;-75
2022/09/29 05:37:46;;;;;;;25.00;6.60;;;;;;;28.06;46.05;94020.13;5112752;28;20304;-75
2022/09/29 05:40:12;;;;;;;16.58;6.97;;;;;;;27.98;46.48;94021.03;5101564;28;20181;-75
2022/09/29 05:42:39;;;;;;;25.52;6.45;;;;;;;28.71;45.39;94036.34;5110980;28;20557;-75
2022/09/29 05:45:05;;;;;;;36.08;7.70;;;;;;;29.80;43.42;94029.50;5108946;28;20752;-76
2022/09/29 05:47:31;;;;;;;31.75;9.80;;;;;;;30.80;41.53;94035.22;5112448;28;20272;-76
2022/09/29 05:49:56;;;;;;;31.05;8.00;;;;;;;31.52;39.89;94043.56;5108934;28;20304;-76
2022/09/29 05:52:21;;;;;;;27.90;8.23;;;;;;;32.08;38.11;94030.91;5100544;28;20181;-77
2022/09/29 05:54:49;;;;;;;20.17;6.80;;;;;;;32.42;37.06;94031.78;5100543;28;20177;-76
2022/09/29 05:57:15;;;;;;;17.40;4.68;;;;;;;32.73;36.68;94027.13;5111791;28;20587;-77
2022/09/29 05:59:40;;;;;;;12.70;4.50;;;;;;;33.05;36.14;94039.19;5112598;28;20173;-76
2022/09/29 06:02:06;;;;;;;10.77;4.45;;;;;;;32.39;36.62;94042.63;5112442;28;20200;-76
2022/09/29 06:04:32;;;;;;;18.85;3.42;;;;;;;33.04;34.73;94045.81;5110267;28;20193;-76
2022/09/29 06:07:00;;;;;;;11.88;3.38;;;;;;;33.62;34.05;94034.34;5110979;28;20292;-76
2022/09/29 06:09:26;;;;;;;9.07;3.17;;;;;;;33.94;33.22;94043.59;5110894;28;20177;-75
2022/09/29 06:11:51;;;;;;;10.52;3.40;;;;;;;32.90;34.03;94045.66;5111162;28;20206;-75
2022/09/29 06:14:16;;;;;;;5.93;2.90;;;;;;;32.97;33.82;94043.78;5111643;28;20196;-75
2022/09/29 06:16:42;;;;;;;4.68;3.05;;;;;;;32.51;35.04;94042.41;5111752;28;20315;-75
2022/09/29 06:19:08;;;;;;;11.45;3.25;;;;;;;31.84;35.02;94037.53;5111720;28;20555;-75
2022/09/29 06:21:34;;;;;;;9.85;3.60;;;;;;;30.44;37.40;94023.63;5112002;28;20185;-75
2022/09/29 06:23:59;;;;;;;6.97;3.38;;;;;;;30.14;38.94;94026.06;5111886;28;20187;-75
2022/09/29 06:26:26;;;;;;;12.75;3.55;;;;;;;30.64;38.37;94029.84;5111553;28;20234;-75
2022/09/29 06:28:52;;;;;;;9.70;3.20;;;;;;;31.85;36.81;94047.25;5111628;28;20177;-75
2022/09/29 06:31:21;;;;;;;7.40;3.10;;;;;;;31.97;35.01;94045.50;5111666;28;20177;-75
2022/09/29 06:33:46;;;;;;;6.50;3.20;;;;;;;32.95;34.51;94046.09;5111475;28;20307;-75
2022/09/29 06:39:27;;;;;;;9.70;3.50;;;;;;;35.09;31.47;94054.06;5107499;28;20200;-76
2022/09/29 06:41:55;;;;;;;6.38;3.28;;;;;;;35.33;29.27;94047.09;5100966;28;20173;-75
2022/09/29 06:44:24;;;;;;;7.40;3.15;;;;;;;35.02;29.79;94054.03;5110191;28;20259;-75
2022/09/29 06:46:50;;;;;;;6.00;3.22;;;;;;;33.38;31.83;94048.56;5110609;28;20639;-75
2022/09/29 06:49:16;;;;;;;11.52;3.30;;;;;;;31.10;35.86;94056.06;5111515;27;20192;-75
2022/09/29 06:51:42;;;;;;;9.77;2.95;;;;;;;29.21;38.28;94041.22;5111515;28;20177;-75
2022/09/29 06:54:09;;;;;;;12.70;3.65;;;;;;;28.00;41.38;94042.38;5111234;28;20173;-74
2022/09/29 06:56:34;;;;;;;8.50;3.17;;;;;;;27.10;43.06;94047.91;5111336;28;20256;-74
2022/09/29 06:59:00;;;;;;;6.75;2.90;;;;;;;26.38;45.57;94039.16;5111430;28;20288;-74
2022/09/29 07:01:25;;;;;;;8.27;3.47;;;;;;;26.14;45.65;94053.28;5111122;28;20173;-75
2022/09/29 07:03:51;;;;;;;3.97;3.10;;;;;;;25.85;46.63;94053.31;5111187;28;20177;-74
2022/09/29 07:06:16;;;;;;;9.40;3.17;;;;;;;25.35;47.23;94059.34;5111093;28;20238;-74
2022/09/29 07:08:42;;;;;;;5.35;2.97;;;;;;;25.04;48.56;94056.94;5104683;28;20567;-74
2022/09/29 07:11:08;;;;;;;7.55;3.28;;;;;;;24.77;50.15;94055.38;5104236;28;20226;-74
2022/09/29 07:13:34;;;;;;;8.48;3.20;;;;;;;24.85;50.55;94052.97;5110722;28;20185;-74
2022/09/29 07:16:09;;;;;;;10.48;3.42;;;;;;;25.16;50.66;94058.97;5111034;28;20615;-74
2022/09/29 07:18:37;;;;;;;8.50;4.30;;;;;;;25.15;48.65;94052.00;5111000;28;20184;-74
2022/09/29 07:21:08;;;;;;;14.43;3.28;;;;;;;24.99;48.55;94051.72;5110829;28;20267;-74
2022/09/29 07:23:35;;;;;;;9.13;3.83;;;;;;;24.46;50.60;94044.00;5109680;28;20184;-74
2022/09/29 07:26:01;;;;;;;11.15;3.33;;;;;;;24.61;52.93;94048.91;5110638;28;20200;-75
2022/09/29 07:28:28;;;;;;;11.00;3.65;;;;;;;24.65;51.07;94022.91;5110711;28;20275;-75
2022/09/29 07:31:04;;;;;;;8.50;3.67;;;;;;;24.58;51.89;94037.97;5101898;28;20206;-75
2022/09/29 07:33:30;;;;;;;7.07;4.25;;;;;;;24.48;52.27;94032.91;5110953;28;20200;-75
2022/09/29 07:35:59;;;;;;;8.27;3.13;;;;;;;24.54;52.94;94040.50;5109296;28;20185;-75
2022/09/29 07:38:25;;;;;;;11.45;4.28;;;;;;;24.50;50.90;94041.44;5100079;28;20311;-75
2022/09/29 07:40:50;;;;;;;14.82;3.63;;;;;;;24.66;51.46;94039.84;5100721;28;20184;-74
2022/09/29 07:43:16;;;;;;;6.53;3.42;;;;;;;24.63;51.24;94035.91;5110737;28;20223;-75
2022/09/29 07:45:48;;;;;;;12.30;3.60;;;;;;;24.81;51.59;94045.56;5110555;28;20236;-75
2022/09/29 07:48:15;;;;;;;13.25;4.18;;;;;;;24.70;49.51;94030.84;5110733;28;20226;-74
2022/09/29 07:50:41;;;;;;;8.25;3.08;;;;;;;24.27;50.31;94048.91;5110709;28;20181;-75
2022/09/29 07:53:06;;;;;;;8.65;3.88;;;;;;;24.31;51.69;94061.41;5106922;28;20259;-75
2022/09/29 07:55:32;;;;;;;14.68;3.25;;;;;;;24.52;52.29;94074.22;5110316;28;20271;-75
2022/09/29 07:57:57;;;;;;;10.02;3.45;;;;;;;24.59;50.34;94058.38;5111928;28;20173;-75
2022/09/29 08:00:23;;;;;;;12.70;4.03;;;;;;;24.26;51.70;94076.91;5114095;28;20161;-75
2022/09/29 08:02:48;;;;;;;15.05;4.07;;;;;;;23.64;53.20;94074.38;5114619;28;20185;-75
2022/09/29 08:05:14;;;;;;;5.78;3.35;;;;;;;23.57;53.33;94077.53;5114020;28;20201;-74
2022/09/29 08:07:39;;;;;;;17.27;4.57;;;;;;;23.59;54.25;94080.69;5114117;28;20219;-75
2022/09/29 08:10:05;;;;;;;8.85;3.10;;;;;;;23.51;53.93;94086.84;5113269;28;20177;-75
2022/09/29 08:12:31;;;;;;;10.20;3.50;;;;;;;23.36;54.65;94060.31;5114292;27;20189;-75
2022/09/29 08:14:56;;;;;;;12.23;3.75;;;;;;;23.57;56.29;94092.84;5113812;28;20173;-76
2022/09/29 08:17:22;;;;;;;9.07;2.83;;;;;;;23.80;53.23;94067.47;5114372;28;20172;-76
2022/09/29 08:19:47;;;;;;;7.13;3.55;;;;;;;24.44;54.90;94098.13;5114420;28;20169;-75
2022/09/29 08:22:12;;;;;;;11.02;3.47;;;;;;;24.36;52.30;94090.84;5113897;28;20188;-75
2022/09/29 08:24:39;;;;;;;10.38;3.60;;;;;;;24.02;50.88;94069.25;5101843;28;20205;-75
2022/09/29 08:27:05;;;;;;;11.65;3.38;;;;;;;23.93;53.64;94073.84;5109218;28;20197;-75
2022/09/29 08:29:32;;;;;;;8.40;3.42;;;;;;;23.84;51.69;94089.16;5111822;28;20612;-75
2022/09/29 08:31:57;;;;;;;10.52;3.53;;;;;;;23.51;52.93;94089.53;5110521;28;20200;-75
2022/09/29 08:34:23;;;;;;;12.13;3.53;;;;;;;23.12;54.30;94102.88;5109625;28;20208;-75
2022/09/29 08:36:48;;;;;;;7.97;3.55;;;;;;;22.92;55.16;94080.81;5113321;28;20231;-75
2022/09/29 08:39:14;;;;;;;10.93;4.20;;;;;;;22.87;56.92;94097.03;5113263;28;20199;-75
2022/09/29 08:42:04;;;;;;;7.10;3.00;;;;;;;22.79;55.99;94091.63;5112834;28;20291;-76
2022/09/29 08:44:43;;;;;;;6.05;3.20;;;;;;;22.56;54.71;94069.34;5110820;27;20191;-75
2022/09/29 08:47:29;;;;;;;9.30;2.83;;;;;;;22.56;56.02;94072.81;5119991;27;20241;-74
2022/09/29 08:50:13;;;;;;;6.85;2.80;;;;;;;22.49;54.34;94085.84;5108944;28;20246;-75
2022/09/29 08:52:46;;;;;;;10.57;3.25;;;;;;;22.46;56.66;94096.41;5113396;28;20249;-74
2022/09/29 08:55:12;;;;;;;10.07;2.95;;;;;;;22.51;59.53;94085.53;5113658;28;20173;-74
2022/09/29 08:57:38;;;;;;;6.28;2.28;;;;;;;22.50;54.51;94092.78;5113855;28;20181;-75
2022/09/29 09:00:07;;;;;;;9.40;3.13;;;;;;;22.44;54.18;94087.84;5113685;28;20177;-75
2022/09/29 09:02:34;;;;;;;11.75;3.03;;;;;;;22.53;55.27;94094.09;5113727;28;20208;-75
2022/09/29 09:05:21;;;;;;;7.38;2.75;;;;;;;22.54;56.06;94074.22;5113611;28;20177;-75
2022/09/29 09:08:12;;;;;;;7.35;2.00;;;;;;;22.57;55.55;94077.06;5113488;28;20663;-75
2022/09/29 09:10:45;;;;;;;7.50;2.85;;;;;;;22.55;56.11;94073.13;5112870;28;20212;-74
2022/09/29 09:13:25;;;;;;;9.98;2.13;;;;;;;22.56;55.63;94072.81;5113315;28;20181;-74
2022/09/29 09:16:00;;;;;;;12.15;2.90;;;;;;;22.46;54.63;94088.34;5113258;28;20256;-74
2022/09/29 09:18:45;;;;;;;13.00;2.70;;;;;;;22.35;56.21;94085.09;5112981;28;20633;-73
2022/09/29 09:21:20;;;;;;;8.27;2.47;;;;;;;22.13;57.56;94077.81;5113131;28;20567;-73
2022/09/29 09:24:25;;;;;;;6.03;2.55;;;;;;;21.90;52.21;94064.63;5112917;27;20181;-73
2022/09/29 09:26:51;;;;;;;3.50;1.70;;;;;;;21.78;53.31;94081.22;5081412;27;20221;-74
2022/09/29 09:29:31;;;;;;;10.65;2.10;;;;;;;21.73;54.49;94067.91;5112602;28;20199;-73
2022/09/29 09:32:02;;;;;;;7.97;2.30;;;;;;;21.74;53.69;94074.88;5112424;28;20172;-74
2022/09/29 09:34:36;;;;;;;4.22;2.45;;;;;;;21.77;55.42;94064.34;5112306;28;20655;-74
2022/09/29 09:37:20;;;;;;;7.43;1.77;;;;;;;21.96;53.65;94069.59;5112059;28;20224;-74
2022/09/29 09:39:59;;;;;;;13.57;3.83;;;;;;;21.96;51.85;94058.06;5112619;28;20176;-74
2022/09/29 09:42:29;;;;;;;10.32;2.08;;;;;;;21.98;51.12;94069.31;5112502;28;20565;-74
2022/09/29 09:45:03;;;;;;;5.70;1.65;;;;;;;22.02;52.29;94065.72;5112652;28;20177;-74
2022/09/29 09:47:36;;;;;;;3.05;1.55;;;;;;;22.08;53.22;94069.09;5112451;28;20253;-74
2022/09/29 09:50:12;;;;;;;8.13;3.25;;;;;;;22.21;52.60;94076.31;5112379;28;20173;-74
2022/09/29 09:52:48;;;;;;;7.10;2.45;;;;;;;22.20;51.17;94080.88;5112534;27;20169;-74
2022/09/29 09:55:19;;;;;;;6.35;2.50;;;;;;;22.31;50.83;94059.22;5112232;28;20173;-73
2022/09/29 09:58:06;;;;;;;8.38;2.47;;;;;;;22.63;50.63;94075.06;5112260;28;20173;-73
2022/09/29 10:00:43;;;;;;;3.75;2.53;;;;;;;22.97;50.21;94079.09;5112198;28;20173;-74
2022/09/29 10:03:11;;;;;;;8.52;3.38;;;;;;;23.21;51.26;94082.22;5112130;28;20184;-73
2022/09/29 10:05:44;;;;;;;3.97;1.23;;;;;;;23.59;46.02;94098.72;5112164;28;20192;-73
2022/09/29 10:08:12;;;;;;;6.50;1.60;;;;;;;23.81;47.57;94087.06;5112100;28;20172;-73
2022/09/29 10:10:40;;;;;;;5.10;1.88;;;;;;;23.90;47.58;94044.88;5112108;28;20640;-74
2022/09/29 10:13:11;;;;;;;3.97;1.63;;;;;;;24.25;48.72;94065.34;5111961;28;20218;-74
2022/09/29 10:15:44;;;;;;;4.45;1.52;;;;;;;24.46;45.90;94076.28;5112015;28;20261;-73
2022/09/29 10:18:17;;;;;;;5.65;2.30;;;;;;;24.29;45.90;94077.09;5112352;28;20172;-74
2022/09/29 10:20:42;;;;;;;8.32;2.20;;;;;;;23.87;46.14;94061.66;5111796;28;20222;-74
2022/09/29 10:23:23;;;;;;;5.63;2.25;;;;;;;23.67;47.28;94058.44;5111786;28;20546;-74
2022/09/29 10:26:14;;;;;;;7.57;4.07;;;;;;;23.53;47.44;94062.31;5111652;28;20197;-74
2022/09/29 10:29:01;;;;;;;10.52;2.65;;;;;;;23.26;48.00;94058.69;5112004;28;20237;-75
2022/09/29 10:31:33;;;;;;;5.40;2.38;;;;;;;23.14;47.97;94069.25;5111742;28;20177;-74
2022/09/29 10:34:14;;;;;;;5.05;2.65;;;;;;;22.96;48.85;94067.56;5111637;28;20206;-74
2022/09/29 10:36:51;;;;;;;6.00;3.00;;;;;;;22.57;50.22;94044.09;5111072;28;20247;-73
2022/09/29 10:39:50;;;;;;;3.03;1.90;;;;;;;22.85;49.25;94075.06;5111157;28;20176;-74
2022/09/29 10:42:30;;;;;;;3.03;1.92;;;;;;;23.11;50.04;94066.38;5065973;28;20739;-74
2022/09/29 10:45:13;;;;;;;6.55;2.17;;;;;;;23.54;48.58;94059.31;5111186;28;20206;-74
2022/09/29 10:47:40;;;;;;;3.00;1.70;;;;;;;23.86;49.36;94063.53;5110990;28;20658;-74
2022/09/29 10:50:21;;;;;;;2.28;1.90;;;;;;;24.22;46.63;94067.88;5111146;28;20181;-74
2022/09/29 10:52:51;;;;;;;8.10;2.42;;;;;;;24.45;45.05;94055.88;5111003;28;20233;-74
2022/09/29 10:55:20;;;;;;;5.68;1.70;;;;;;;24.60;45.19;94063.47;5111364;28;20177;-73
2022/09/29 10:57:47;;;;;;;4.55;1.92;;;;;;;24.74;48.37;94058.69;5110911;28;20211;-74
2022/09/29 11:00:35;;;;;;;4.20;1.80;;;;;;;24.84;45.39;94062.94;5110887;28;20222;-74
2022/09/29 11:03:15;;;;;;;1.70;1.60;;;;;;;24.84;43.96;94057.56;5111108;28;20173;-74
2022/09/29 11:05:51;;;;;;;7.50;2.00;;;;;;;24.78;46.75;94032.72;5110803;28;20196;-74
2022/09/29 11:08:18;;;;;;;3.97;1.67;;;;;;;25.05;45.64;94053.13;5110684;28;20679;-74
2022/09/29 11:10:45;;;;;;;4.47;2.10;;;;;;;25.09;42.70;94045.97;5110632;28;20648;-74
2022/09/29 11:13:44;;;;;;;2.95;1.60;;;;;;;25.02;42.99;94051.06;5110825;28;20206;-74
2022/09/29 11:16:35;;;;;;;4.95;1.50;;;;;;;24.98;43.21;94050.13;5061464;28;20189;-74
2022/09/29 11:19:13;;;;;;;3.63;1.73;;;;;;;25.00;45.60;94049.78;5110529;28;20180;-74
2022/09/29 11:21:41;;;;;;;5.25;2.22;;;;;;;24.95;42.95;94041.91;5110559;28;20201;-74
2022/09/29 11:24:32;;;;;;;7.90;1.75;;;;;;;25.01;44.56;94046.78;5110334;28;20177;-74
2022/09/29 11:27:15;;;;;;;2.80;1.70;;;;;;;24.91;43.30;94041.72;5110240;28;20193;-74
2022/09/29 11:30:03;;;;;;;7.13;1.80;;;;;;;24.98;45.78;94044.75;5110203;28;20184;-74
2022/09/29 11:32:38;;;;;;;3.42;1.80;;;;;;;25.03;43.70;94038.38;5063615;28;20546;-74
2022/09/29 11:35:10;;;;;;;3.42;1.63;;;;;;;24.95;44.75;94045.38;5109996;28;20173;-74
2022/09/29 11:38:05;;;;;;;3.72;1.65;;;;;;;24.82;44.59;94044.41;5109516;28;20315;-74
2022/09/29 11:40:52;;;;;;;2.58;1.67;;;;;;;24.76;46.65;94036.84;5109786;28;20169;-74
2022/09/29 11:43:44;;;;;;;1.75;1.38;;;;;;;24.74;45.71;94049.81;5109832;28;20175;-74
2022/09/29 11:46:34;;;;;;;2.40;1.40;;;;;;;24.54;44.64;94050.50;5109580;28;20236;-74
2022/09/29 11:49:18;;;;;;;2.47;1.65;;;;;;;24.46;46.11;94057.47;5110028;28;20176;-74
2022/09/29 11:52:08;;;;;;;4.32;1.80;;;;;;;24.21;45.39;94044.78;5109739;28;20202;-74